createdAt,value
2017-04-12T09:48:16.817Z,2104
2017-04-12T09:48:47.370Z,2060
2017-04-12T09:49:47.331Z,2004
2017-04-12T09:50:47.382Z,1916
2017-04-12T09:51:47.658Z,1836
2017-04-12T09:52:47.354Z,1764
2017-04-12T09:53:47.402Z,1720
2017-04-12T09:54:47.362Z,1704
2017-04-12T09:55:47.735Z,1680
2017-04-12T09:56:47.739Z,1648
2017-04-12T09:57:47.074Z,1628
2017-04-12T09:58:47.702Z,1612
2017-04-12T09:59:47.817Z,1604
2017-04-12T10:00:47.723Z,1580
2017-04-12T10:01:47.825Z,1548
2017-04-12T10:02:47.786Z,1532
2017-04-12T10:03:49.383Z,1492
2017-04-12T10:04:47.136Z,1464
2017-04-12T10:05:47.447Z,1368
2017-04-12T10:06:47.556Z,1428
2017-04-12T10:07:47.824Z,1456
2017-04-12T10:08:47.825Z,1496
2017-04-12T10:09:47.161Z,1516
2017-04-12T10:10:47.165Z,1548
2017-04-12T10:11:47.913Z,1584
2017-04-12T10:12:47.563Z,1588
2017-04-12T10:13:47.553Z,1656
2017-04-12T10:14:49.013Z,1672
2017-04-12T10:15:47.206Z,1708
2017-04-12T10:16:47.576Z,1684
2017-04-12T10:17:47.216Z,1612
2017-04-12T10:18:47.273Z,1580
2017-04-12T10:19:48.801Z,1520
2017-04-12T10:20:47.237Z,1528
2017-04-12T10:21:48.098Z,1524
2017-04-12T10:22:47.976Z,1476
2017-04-12T10:23:47.621Z,1496
2017-04-12T10:24:47.953Z,1492
2017-04-12T10:25:47.633Z,1516
2017-04-12T10:26:47.594Z,1484
2017-04-12T10:27:47.289Z,1452
2017-04-12T10:28:47.652Z,1380
2017-04-12T10:29:47.923Z,1296
2017-04-12T10:30:47.726Z,1276
2017-04-12T10:31:47.987Z,1272
2017-04-12T10:32:47.371Z,1272
2017-04-12T10:33:47.740Z,1268
2017-04-12T10:34:47.754Z,1276
2017-04-12T10:35:47.766Z,1296
2017-04-12T10:36:47.718Z,1336
2017-04-12T10:37:47.669Z,1376
2017-04-12T10:38:47.997Z,1400
2017-04-12T10:39:48.001Z,1424
2017-04-12T10:40:48.005Z,1436
2017-04-12T10:41:47.750Z,1440
2017-04-12T10:42:48.064Z,1424
2017-04-12T10:43:48.024Z,1408
2017-04-12T10:44:48.033Z,1296
2017-04-12T10:45:48.084Z,1340
2017-04-12T10:46:48.131Z,1260
2017-04-12T10:47:47.529Z,1200
2017-04-12T10:48:47.435Z,1264
2017-04-12T10:49:48.130Z,1276
2017-04-12T10:50:48.236Z,1340
2017-04-12T10:51:47.770Z,1332
2017-04-12T10:52:47.472Z,1340
2017-04-12T10:53:48.151Z,1284
2017-04-12T10:54:47.582Z,1240
2017-04-12T10:55:47.891Z,1216
2017-04-12T10:56:48.167Z,1168
2017-04-12T10:57:48.451Z,1068
2017-04-12T10:58:47.820Z,1112
2017-04-12T10:59:47.856Z,1120
2017-04-12T11:00:48.149Z,1100
2017-04-12T11:01:48.209Z,1076
2017-04-12T11:02:47.948Z,1072
2017-04-12T11:03:48.265Z,1076
2017-04-12T11:04:47.869Z,1220
2017-04-12T11:05:47.928Z,1264
2017-04-12T11:06:47.358Z,1196
2017-04-12T11:07:48.199Z,1088
2017-04-12T11:08:48.304Z,1004
2017-04-12T11:09:48.005Z,944
2017-04-12T11:10:47.905Z,912
2017-04-12T11:11:47.649Z,904
2017-04-12T11:12:47.710Z,928
2017-04-12T11:13:47.978Z,924
2017-04-12T11:14:47.984Z,940
2017-04-12T11:15:48.249Z,920
2017-04-12T11:16:48.264Z,852
2017-04-12T11:17:47.434Z,776
2017-04-12T11:18:47.961Z,776
2017-04-12T11:19:48.019Z,816
2017-04-12T11:20:48.341Z,844
2017-04-12T11:21:48.397Z,852
2017-04-12T11:22:48.352Z,892
2017-04-12T11:23:48.002Z,880
2017-04-12T11:24:48.109Z,936
2017-04-12T11:25:48.325Z,980
2017-04-12T11:26:48.027Z,884
2017-04-12T11:27:48.030Z,896
2017-04-12T11:28:48.658Z,968
2017-04-12T11:29:48.454Z,1020
2017-04-12T11:30:48.358Z,1016
2017-04-12T11:31:49.029Z,1040
2017-04-12T11:32:48.112Z,1112
2017-04-12T11:33:47.757Z,1156
2017-04-12T11:34:48.436Z,1244
2017-04-12T11:35:48.391Z,1236
2017-04-12T11:36:48.087Z,1352
2017-04-12T11:37:47.790Z,1348
2017-04-12T11:38:48.104Z,1368
2017-04-12T11:39:48.424Z,1336
2017-04-12T11:40:48.133Z,1252
2017-04-12T11:41:48.173Z,1204
2017-04-12T11:42:48.496Z,1176
2017-04-12T11:43:47.832Z,1148
2017-04-12T11:44:48.470Z,980
2017-04-12T11:45:48.154Z,868
2017-04-12T11:46:48.470Z,800
2017-04-12T11:47:48.218Z,696
2017-04-12T11:48:48.533Z,696
2017-04-12T11:49:48.231Z,680
2017-04-12T11:50:48.498Z,608
2017-04-12T11:51:48.200Z,600
2017-04-12T11:52:48.303Z,620
2017-04-12T11:53:48.511Z,640
2017-04-12T11:54:48.216Z,680
2017-04-12T11:55:48.323Z,680
2017-04-12T11:56:48.229Z,696
2017-04-12T11:57:48.237Z,744
2017-04-12T11:58:48.578Z,760
2017-04-12T11:59:48.250Z,752
2017-04-12T12:00:48.622Z,696
2017-04-12T12:01:48.310Z,664
2017-04-12T12:02:48.338Z,672
2017-04-12T12:03:48.329Z,684
2017-04-12T12:04:48.604Z,700
2017-04-12T12:05:48.620Z,664
2017-04-12T12:06:48.661Z,664
2017-04-12T12:07:48.354Z,692
2017-04-12T12:08:48.673Z,688
2017-04-12T12:09:48.368Z,720
2017-04-12T12:10:48.382Z,720
2017-04-12T12:11:48.695Z,716
2017-04-12T12:12:48.654Z,744
2017-04-12T12:13:48.414Z,748
2017-04-12T12:14:48.142Z,728
2017-04-12T12:15:48.412Z,780
2017-04-12T12:16:48.683Z,780
2017-04-12T12:17:48.683Z,784
2017-04-12T12:18:48.696Z,796
2017-04-12T12:19:48.703Z,840
2017-04-12T12:20:48.399Z,816
2017-04-12T12:21:48.462Z,792
2017-04-12T12:22:48.463Z,756
2017-04-12T12:23:48.468Z,740
2017-04-12T12:24:48.477Z,712
2017-04-12T12:25:50.285Z,712
2017-04-12T12:26:48.494Z,768
2017-04-12T12:27:48.812Z,752
2017-04-12T12:28:48.455Z,760
2017-04-12T12:29:48.823Z,800
2017-04-12T12:30:48.531Z,804
2017-04-12T12:31:48.841Z,732
2017-04-12T12:32:48.847Z,664
2017-04-12T12:33:48.279Z,660
2017-04-12T12:34:48.498Z,668
2017-04-12T12:35:48.201Z,668
2017-04-12T12:36:47.936Z,772
2017-04-12T12:37:48.832Z,712
2017-04-12T12:38:48.851Z,760
2017-04-12T12:39:48.222Z,888
2017-04-12T12:40:48.855Z,828
2017-04-12T12:41:48.600Z,860
2017-04-12T12:42:48.917Z,852
2017-04-12T12:43:48.615Z,844
2017-04-12T12:44:48.569Z,872
2017-04-12T12:45:48.578Z,872
2017-04-12T12:46:48.638Z,996
2017-04-12T12:47:48.591Z,1032
2017-04-12T12:48:48.910Z,988
2017-04-12T12:49:48.925Z,1052
2017-04-12T12:50:48.712Z,1084
2017-04-12T12:51:48.677Z,1124
2017-04-12T12:52:48.984Z,1192
2017-04-12T12:53:48.942Z,1232
2017-04-12T12:54:49.003Z,1260
2017-04-12T12:55:48.705Z,1268
2017-04-12T12:56:49.023Z,1184
2017-04-12T12:57:49.080Z,1096
2017-04-12T12:58:48.982Z,1036
2017-04-12T12:59:50.604Z,940
2017-04-12T13:01:03.069Z,968
2017-04-12T13:01:49.010Z,968
2017-04-12T13:02:49.363Z,948
2017-04-12T13:03:48.397Z,860
2017-04-12T13:04:48.719Z,836
2017-04-12T13:05:48.723Z,824
2017-04-12T13:06:48.825Z,804
2017-04-12T13:07:49.096Z,808
2017-04-12T13:08:48.533Z,728
2017-04-12T13:09:49.162Z,744
2017-04-12T13:10:49.070Z,748
2017-04-12T13:11:49.184Z,832
2017-04-12T13:12:48.819Z,812
2017-04-12T13:13:48.527Z,856
2017-04-12T13:14:48.786Z,784
2017-04-12T13:15:49.225Z,760
2017-04-12T13:16:48.981Z,776
2017-04-12T13:17:48.807Z,804
2017-04-12T13:18:49.126Z,828
2017-04-12T13:19:49.132Z,788
2017-04-12T13:20:49.189Z,784
2017-04-12T13:21:48.832Z,708
2017-04-12T13:22:49.152Z,704
2017-04-12T13:23:48.637Z,712
2017-04-12T13:24:48.858Z,712
2017-04-12T13:25:49.170Z,676
2017-04-12T13:26:49.230Z,672
2017-04-12T13:27:49.184Z,688
2017-04-12T13:28:48.888Z,640
2017-04-12T13:29:49.254Z,564
2017-04-12T13:30:48.898Z,516
2017-04-12T13:31:48.960Z,488
2017-04-12T13:32:49.243Z,516
2017-04-12T13:33:49.277Z,496
2017-04-12T13:34:49.240Z,544
2017-04-12T13:35:49.034Z,616
2017-04-12T13:36:48.629Z,612
2017-04-12T13:37:48.694Z,588
2017-04-12T13:38:49.264Z,572
2017-04-12T13:39:49.319Z,568
2017-04-12T13:40:48.965Z,624
2017-04-12T13:41:49.282Z,664
2017-04-12T13:42:49.341Z,724
2017-04-12T13:43:48.980Z,760
2017-04-12T13:44:49.042Z,816
2017-04-12T13:45:48.694Z,864
2017-04-12T13:46:48.697Z,900
2017-04-12T13:47:49.321Z,888
2017-04-12T13:48:49.418Z,872
2017-04-12T13:49:49.276Z,912
2017-04-12T13:50:49.479Z,900
2017-04-12T13:51:49.402Z,912
2017-04-12T13:52:49.155Z,948
2017-04-12T13:53:49.052Z,984
2017-04-12T13:54:49.092Z,988
2017-04-12T13:55:49.173Z,1036
2017-04-12T13:56:49.084Z,1072
2017-04-12T13:57:49.129Z,1068
2017-04-12T13:58:49.799Z,1048
2017-04-12T13:59:49.404Z,1060
2017-04-12T14:00:49.415Z,1032
2017-04-12T14:01:49.434Z,1004
2017-04-12T14:02:49.431Z,960
2017-04-12T14:03:49.174Z,912
2017-04-12T14:04:49.543Z,868
2017-04-12T14:05:49.447Z,752
2017-04-12T14:06:49.563Z,720
2017-04-12T14:07:49.464Z,628
2017-04-12T14:08:49.211Z,664
2017-04-12T14:09:49.477Z,684
2017-04-12T14:10:48.962Z,676
2017-04-12T14:11:49.491Z,672
2017-04-12T14:12:49.196Z,628
2017-04-12T14:13:49.196Z,672
2017-04-12T14:14:49.562Z,660
2017-04-12T14:15:49.263Z,716
2017-04-12T14:16:49.626Z,704
2017-04-12T14:17:49.533Z,636
2017-04-12T14:18:49.602Z,600
2017-04-12T14:19:49.603Z,580
2017-04-12T14:20:48.934Z,572
2017-04-12T14:21:49.252Z,560
2017-04-12T14:22:49.620Z,568
2017-04-12T14:23:49.632Z,576
2017-04-12T14:24:49.587Z,560
2017-04-12T14:25:49.597Z,508
2017-04-12T14:26:49.292Z,492
2017-04-12T14:27:49.671Z,480
2017-04-12T14:28:49.606Z,504
2017-04-12T14:29:49.618Z,496
2017-04-12T14:30:49.692Z,496
2017-04-12T14:31:49.371Z,512
2017-04-12T14:32:49.429Z,548
2017-04-12T14:33:49.653Z,532
2017-04-12T14:34:49.658Z,508
2017-04-12T14:35:49.500Z,476
2017-04-12T14:36:49.672Z,448
2017-04-12T14:37:49.365Z,424
2017-04-12T14:38:49.060Z,424
2017-04-12T14:39:49.428Z,408
2017-04-12T14:40:49.438Z,376
2017-04-12T14:41:50.890Z,356
2017-04-12T14:42:49.395Z,340
2017-04-12T14:43:49.714Z,332
2017-04-12T14:44:49.410Z,320
2017-04-12T14:45:49.422Z,320
2017-04-12T14:46:49.736Z,336
2017-04-12T14:47:49.483Z,320
2017-04-12T14:48:49.802Z,300
2017-04-12T14:49:49.497Z,284
2017-04-12T14:50:49.607Z,268
2017-04-12T14:51:49.778Z,268
2017-04-12T14:52:49.211Z,264
2017-04-12T14:53:50.182Z,256
2017-04-12T14:54:49.791Z,248
2017-04-12T14:55:49.486Z,244
2017-04-12T14:56:49.238Z,240
2017-04-12T14:57:49.813Z,236
2017-04-12T14:58:49.563Z,236
2017-04-12T14:59:49.935Z,240
2017-04-12T15:00:49.326Z,248
2017-04-12T15:01:49.529Z,252
2017-04-12T15:02:49.331Z,260
2017-04-12T15:03:49.289Z,256
2017-04-12T15:04:49.552Z,260
2017-04-12T15:05:49.873Z,276
2017-04-12T15:06:49.978Z,284
2017-04-12T15:07:49.983Z,300
2017-04-12T15:08:49.271Z,316
2017-04-12T15:09:49.639Z,328
2017-04-12T15:10:49.907Z,348
2017-04-12T15:11:49.917Z,364
2017-04-12T15:12:49.662Z,372
2017-04-12T15:13:49.715Z,376
2017-04-12T15:14:49.723Z,368
2017-04-12T15:15:49.625Z,364
2017-04-12T15:16:49.946Z,352
2017-04-12T15:17:49.953Z,348
2017-04-12T15:18:50.011Z,368
2017-04-12T15:19:49.354Z,392
2017-04-12T15:20:50.025Z,412
2017-04-12T15:21:49.724Z,460
2017-04-12T15:22:50.086Z,476
2017-04-12T15:23:50.149Z,488
2017-04-12T15:24:50.006Z,500
2017-04-12T15:25:50.016Z,504
2017-04-12T15:26:49.759Z,528
2017-04-12T15:27:49.714Z,520
2017-04-12T15:28:50.091Z,500
2017-04-12T15:29:49.776Z,476
2017-04-12T15:30:50.049Z,452
2017-04-12T15:31:49.535Z,440
2017-04-12T15:32:49.802Z,424
2017-04-12T15:33:49.809Z,396
2017-04-12T15:34:50.076Z,388
2017-04-12T15:35:50.135Z,384
2017-04-12T15:36:50.099Z,372
2017-04-12T15:37:50.158Z,356
2017-04-12T15:38:49.841Z,348
2017-04-12T15:39:50.156Z,328
2017-04-12T15:40:50.166Z,308
2017-04-12T15:41:49.812Z,284
2017-04-12T15:42:50.177Z,268
2017-04-12T15:43:50.235Z,280
2017-04-12T15:44:49.573Z,276
2017-04-12T15:45:50.154Z,292
2017-04-12T15:46:49.997Z,296
2017-04-12T15:47:50.213Z,288
2017-04-12T15:48:49.915Z,284
2017-04-12T15:49:49.852Z,280
2017-04-12T15:50:50.235Z,280
2017-04-12T15:51:49.881Z,292
2017-04-12T15:52:50.208Z,288
2017-04-12T15:53:49.689Z,288
2017-04-12T15:54:50.260Z,264
2017-04-12T15:55:50.272Z,260
2017-04-12T15:56:50.279Z,244
2017-04-12T15:57:50.240Z,236
2017-04-12T15:58:49.986Z,220
2017-04-12T15:59:50.611Z,208
2017-04-12T16:00:50.266Z,204
2017-04-12T16:01:50.322Z,204
2017-04-12T16:02:50.014Z,200
2017-04-12T16:03:50.284Z,204
2017-04-12T16:04:50.031Z,196
2017-04-12T16:05:50.304Z,196
2017-04-12T16:06:50.403Z,192
2017-04-12T16:07:50.055Z,180
2017-04-12T16:08:50.008Z,172
2017-04-12T16:09:50.015Z,164
2017-04-12T16:10:49.759Z,160
2017-04-12T16:11:50.037Z,156
2017-04-12T16:12:50.362Z,144
2017-04-12T16:13:50.356Z,144
2017-04-12T16:14:50.414Z,140
2017-04-12T16:15:50.371Z,148
2017-04-12T16:16:50.430Z,156
2017-04-12T16:17:50.120Z,156
2017-04-12T16:18:50.083Z,172
2017-04-12T16:19:50.090Z,176
2017-04-12T16:20:50.408Z,180
2017-04-12T16:21:50.415Z,172
2017-04-12T16:22:50.114Z,184
2017-04-12T16:23:50.529Z,196
2017-04-12T16:24:50.135Z,188
2017-04-12T16:25:50.495Z,168
2017-04-12T16:26:50.240Z,164
2017-04-12T16:27:50.461Z,156
2017-04-12T16:28:50.512Z,148
2017-04-12T16:29:49.851Z,148
2017-04-12T16:30:50.479Z,136
2017-04-12T16:31:49.869Z,128
2017-04-12T16:32:50.552Z,120
2017-04-12T16:33:50.245Z,124
2017-04-12T16:34:50.302Z,128
2017-04-12T16:35:49.901Z,124
2017-04-12T16:36:52.173Z,136
2017-04-12T16:37:50.268Z,144
2017-04-12T16:38:51.338Z,148
2017-04-12T16:39:50.241Z,148
2017-04-12T16:40:50.557Z,136
2017-04-12T16:41:50.658Z,132
2017-04-12T16:42:50.647Z,136
2017-04-12T16:43:50.258Z,132
2017-04-12T16:44:49.690Z,140
2017-04-12T16:45:50.275Z,132
2017-04-12T16:46:50.079Z,136
2017-04-12T16:47:50.602Z,132
2017-04-12T16:48:50.643Z,120
2017-04-12T16:49:50.677Z,116
2017-04-12T16:50:50.618Z,116
2017-04-12T16:51:50.070Z,120
2017-04-12T16:52:50.440Z,124
2017-04-12T16:53:50.346Z,132
2017-04-12T16:54:50.188Z,136
2017-04-12T16:55:50.406Z,148
2017-04-12T16:56:50.110Z,152
2017-04-12T16:57:50.727Z,172
2017-04-12T16:58:50.990Z,172
2017-04-12T16:59:50.433Z,208
2017-04-12T17:00:50.605Z,220
2017-04-12T17:01:51.237Z,212
2017-04-12T17:02:50.713Z,176
2017-04-12T17:03:50.509Z,168
2017-04-12T17:04:50.421Z,156
2017-04-12T17:05:50.882Z,164
2017-04-12T17:06:50.843Z,188
2017-04-12T17:07:50.495Z,164
2017-04-12T17:08:50.756Z,160
2017-04-12T17:09:50.765Z,152
2017-04-12T17:10:50.822Z,152
2017-04-12T17:11:50.161Z,148
2017-04-12T17:12:50.840Z,148
2017-04-12T17:13:49.866Z,144
2017-04-12T17:14:50.810Z,144
2017-04-12T17:15:50.545Z,144
2017-04-12T17:16:50.510Z,136
2017-04-12T17:17:50.828Z,132
2017-04-12T17:18:50.847Z,128
2017-04-12T17:19:50.585Z,124
2017-04-12T17:20:50.870Z,124
2017-04-12T17:21:50.553Z,120
2017-04-12T17:22:50.556Z,120
2017-04-12T17:23:50.300Z,120
2017-04-12T17:24:50.935Z,116
2017-04-12T17:25:51.028Z,120
2017-04-12T17:26:50.942Z,120
2017-04-12T17:27:50.710Z,120
2017-04-12T17:28:50.974Z,124
2017-04-12T17:29:50.689Z,120
2017-04-12T17:30:50.705Z,120
2017-04-12T17:31:50.621Z,120
2017-04-12T17:32:50.628Z,124
2017-04-12T17:33:51.658Z,120
2017-04-12T17:34:50.955Z,116
2017-04-12T17:35:51.019Z,120
2017-04-12T17:36:50.356Z,120
2017-04-12T17:37:50.984Z,120
2017-04-12T17:38:50.991Z,116
2017-04-12T17:39:50.477Z,120
2017-04-12T17:40:51.047Z,116
2017-04-12T17:41:51.300Z,116
2017-04-12T17:42:51.124Z,116
2017-04-12T17:43:50.779Z,112
2017-04-12T17:44:51.035Z,112
2017-04-12T17:45:50.727Z,112
2017-04-12T17:46:50.738Z,112
2017-04-12T17:47:50.795Z,112
2017-04-12T17:48:50.809Z,112
2017-04-12T17:49:51.120Z,108
2017-04-12T17:50:50.780Z,108
2017-04-12T17:51:51.134Z,108
2017-04-12T17:52:51.148Z,104
2017-04-12T17:53:50.887Z,104
2017-04-12T17:54:51.165Z,100
2017-04-12T17:55:50.862Z,100
2017-04-12T17:56:50.246Z,100
2017-04-12T17:57:51.134Z,96
2017-04-12T17:58:52.786Z,96
2017-04-12T17:59:51.251Z,92
2017-04-12T18:00:50.847Z,92
2017-04-12T18:01:52.507Z,92
2017-04-12T18:02:51.294Z,88
2017-04-12T18:03:51.183Z,92
2017-04-12T18:04:51.244Z,92
2017-04-12T18:05:51.238Z,92
2017-04-12T18:06:50.951Z,92
2017-04-12T18:07:51.213Z,88
2017-04-12T18:08:50.651Z,88
2017-04-12T18:09:51.532Z,88
2017-04-12T18:10:51.335Z,84
2017-04-12T18:11:51.279Z,88
2017-04-12T18:12:51.253Z,84
2017-04-12T18:13:51.400Z,84
2017-04-12T18:14:51.369Z,84
2017-04-12T18:15:50.969Z,84
2017-04-12T18:16:51.392Z,84
2017-04-12T18:17:50.980Z,80
2017-04-12T18:18:51.300Z,84
2017-04-12T18:19:51.052Z,84
2017-04-12T18:20:51.006Z,84
2017-04-12T18:21:51.324Z,84
2017-04-12T18:22:51.046Z,80
2017-04-12T18:23:51.439Z,80
2017-04-12T18:24:51.355Z,80
2017-04-12T18:25:50.737Z,80
2017-04-12T18:26:51.415Z,80
2017-04-12T18:27:51.419Z,80
2017-04-12T18:28:51.478Z,80
2017-04-12T18:29:51.435Z,80
2017-04-12T18:30:50.828Z,80
2017-04-12T18:31:51.546Z,80
2017-04-12T18:32:51.566Z,80
2017-04-12T18:33:51.117Z,80
2017-04-12T18:34:51.475Z,80
2017-04-12T18:35:51.181Z,80
2017-04-12T18:36:52.182Z,80
2017-04-12T18:37:50.831Z,76
2017-04-12T18:38:51.148Z,76
2017-04-12T18:39:50.899Z,76
2017-04-12T18:40:51.481Z,80
2017-04-12T18:41:51.227Z,76
2017-04-12T18:42:51.490Z,80
2017-04-12T18:43:51.302Z,76
2017-04-12T18:44:51.507Z,76
2017-04-12T18:45:51.518Z,80
2017-04-12T18:46:51.218Z,80
2017-04-12T18:47:51.584Z,76
2017-04-12T18:48:51.594Z,76
2017-04-12T18:49:50.980Z,76
2017-04-12T18:50:51.296Z,80
2017-04-12T18:51:51.254Z,76
2017-04-12T18:52:50.644Z,76
2017-04-12T18:53:51.582Z,80
2017-04-12T18:54:51.638Z,76
2017-04-12T18:55:51.070Z,76
2017-04-12T18:56:51.015Z,76
2017-04-12T18:57:51.662Z,76
2017-04-12T18:58:51.415Z,80
2017-04-12T18:59:51.468Z,76
2017-04-12T19:00:51.641Z,80
2017-04-12T19:01:51.396Z,76
2017-04-12T19:02:51.391Z,76
2017-04-12T19:03:51.405Z,76
2017-04-12T19:04:52.574Z,80
2017-04-12T19:05:51.489Z,80
2017-04-12T19:06:51.735Z,76
2017-04-12T19:07:51.747Z,76
2017-04-12T19:08:51.718Z,76
2017-04-12T19:09:53.356Z,76
2017-04-12T19:10:51.455Z,80
2017-04-12T19:11:51.517Z,76
2017-04-12T19:12:51.728Z,80
2017-04-12T19:13:51.428Z,76
2017-04-12T19:14:51.798Z,76
2017-04-12T19:15:51.495Z,80
2017-04-12T19:16:51.812Z,76
2017-04-12T19:17:51.464Z,76
2017-04-12T19:18:51.466Z,76
2017-04-12T19:19:51.837Z,80
2017-04-12T19:20:51.797Z,80
2017-04-12T19:21:51.854Z,76
2017-04-12T19:22:51.865Z,76
2017-04-12T19:23:51.609Z,72
2017-04-12T19:24:52.380Z,80
2017-04-12T19:25:53.424Z,80
2017-04-12T19:26:51.845Z,80
2017-04-12T19:27:51.537Z,80
2017-04-12T19:28:51.908Z,80
2017-04-12T19:29:51.656Z,80
2017-04-12T19:30:51.927Z,80
2017-04-12T19:31:51.933Z,76
2017-04-12T19:32:51.632Z,76
2017-04-12T19:33:51.603Z,80
2017-04-12T19:34:51.644Z,76
2017-04-12T19:35:51.954Z,80
2017-04-12T19:37:06.488Z,76
2017-04-12T19:37:51.351Z,76
2017-04-12T19:38:51.928Z,76
2017-04-12T19:39:51.979Z,76
2017-04-12T19:40:51.319Z,76
2017-04-12T19:41:52.001Z,76
2017-04-12T19:42:52.003Z,76
2017-04-12T19:43:54.070Z,76
2017-04-12T19:44:52.064Z,80
2017-04-12T19:45:52.019Z,76
2017-04-12T19:46:51.977Z,76
2017-04-12T19:47:51.727Z,76
2017-04-12T19:48:52.044Z,76
2017-04-12T19:49:51.747Z,76
2017-04-12T19:50:52.002Z,76
2017-04-12T19:51:51.753Z,80
2017-04-12T19:52:51.707Z,76
2017-04-12T19:53:51.407Z,76
2017-04-12T19:54:52.089Z,76
2017-04-12T19:55:52.088Z,76
2017-04-12T19:56:51.839Z,80
2017-04-12T19:57:52.050Z,80
2017-04-12T19:58:52.059Z,76
2017-04-12T19:59:52.170Z,76
2017-04-12T20:00:52.064Z,80
2017-04-12T20:01:52.121Z,80
2017-04-12T20:02:52.128Z,80
2017-04-12T20:03:51.778Z,76
2017-04-12T20:04:51.788Z,76
2017-04-12T20:05:52.147Z,80
2017-04-12T20:06:52.160Z,76
2017-04-12T20:07:52.411Z,76
2017-04-12T20:08:51.855Z,76
2017-04-12T20:09:52.131Z,76
2017-04-12T20:10:52.187Z,80
2017-04-12T20:11:52.191Z,76
2017-04-12T20:12:52.145Z,76
2017-04-12T20:13:51.842Z,80
2017-04-12T20:14:52.155Z,80
2017-04-12T20:15:52.158Z,80
2017-04-12T20:16:51.862Z,80
2017-04-12T20:17:51.915Z,76
2017-04-12T20:18:52.244Z,76
2017-04-12T20:19:52.271Z,80
2017-04-12T20:20:51.571Z,80
2017-04-12T20:21:51.896Z,76
2017-04-12T20:22:52.256Z,80
2017-04-12T20:23:52.317Z,80
2017-04-12T20:24:52.220Z,80
2017-04-12T20:25:51.914Z,80
2017-04-12T20:26:51.922Z,80
2017-04-12T20:27:51.977Z,80
2017-04-12T20:28:51.675Z,80
2017-04-12T20:29:52.351Z,80
2017-04-12T20:30:52.262Z,76
2017-04-12T20:31:52.271Z,80
2017-04-12T20:32:52.276Z,80
2017-04-12T20:33:52.470Z,80
2017-04-12T20:34:52.180Z,80
2017-04-12T20:35:52.385Z,80
2017-04-12T20:36:51.991Z,80
2017-04-12T20:37:52.046Z,80
2017-04-12T20:38:51.745Z,80
2017-04-12T20:39:52.077Z,80
2017-04-12T20:40:52.016Z,76
2017-04-12T20:41:52.022Z,80
2017-04-12T20:42:52.391Z,80
2017-04-12T20:43:52.149Z,76
2017-04-12T20:44:52.364Z,80
2017-04-12T20:45:52.099Z,80
2017-04-12T20:46:52.063Z,76
2017-04-12T20:47:52.115Z,76
2017-04-12T20:48:52.549Z,80
2017-04-12T20:49:52.355Z,80
2017-04-12T20:50:52.134Z,80
2017-04-12T20:51:51.784Z,80
2017-04-12T20:52:52.455Z,80
2017-04-12T20:53:52.448Z,80
2017-04-12T20:54:51.801Z,80
2017-04-12T20:55:52.428Z,80
2017-04-12T20:56:52.136Z,80
2017-04-12T20:57:52.491Z,80
2017-04-12T20:58:52.135Z,76
2017-04-12T20:59:52.463Z,80
2017-04-12T21:00:52.470Z,0
2017-04-12T21:01:52.156Z,0
2017-04-12T21:02:52.161Z,0
2017-04-12T21:03:52.473Z,0
2017-04-12T21:04:52.478Z,0
2017-04-12T21:05:53.970Z,0
2017-04-12T21:06:52.179Z,0
2017-04-12T21:07:52.487Z,0
2017-04-12T21:08:52.494Z,0
2017-04-12T21:09:52.189Z,0
2017-04-12T21:10:52.797Z,0
2017-04-12T21:11:52.495Z,0
2017-04-12T21:12:52.501Z,0
2017-04-12T21:13:53.405Z,0
2017-04-12T21:14:51.885Z,0
2017-04-12T21:15:52.504Z,0
2017-04-12T21:16:52.570Z,0
2017-04-12T21:17:52.512Z,0
2017-04-12T21:18:52.247Z,0
2017-04-12T21:19:52.508Z,0
2017-04-12T21:20:52.200Z,0
2017-04-12T21:21:52.522Z,0
2017-04-12T21:22:52.569Z,0
2017-04-12T21:23:52.512Z,0
2017-04-12T21:24:52.196Z,0
2017-04-12T21:25:52.517Z,0
2017-04-12T21:26:52.227Z,0
2017-04-12T21:27:51.895Z,0
2017-04-12T21:28:52.201Z,0
2017-04-12T21:29:52.523Z,0
2017-04-12T21:30:52.262Z,0
2017-04-12T21:31:52.215Z,0
2017-04-12T21:32:52.521Z,0
2017-04-12T21:33:52.521Z,0
2017-04-12T21:34:52.267Z,0
2017-04-12T21:35:52.523Z,0
2017-04-12T21:36:53.779Z,0
2017-04-12T21:37:52.528Z,0
2017-04-12T21:38:52.216Z,0
2017-04-12T21:39:52.532Z,0
2017-04-12T21:40:52.219Z,0
2017-04-12T21:41:52.235Z,0
2017-04-12T21:42:52.223Z,0
2017-04-12T21:43:52.534Z,0
2017-04-12T21:44:51.920Z,0
2017-04-12T21:45:52.590Z,0
2017-04-12T21:46:52.544Z,0
2017-04-12T21:47:52.228Z,0
2017-04-12T21:48:52.540Z,0
2017-04-12T21:49:52.547Z,0
2017-04-12T21:50:52.233Z,0
2017-04-12T21:51:52.546Z,0
2017-04-12T21:52:52.286Z,0
2017-04-12T21:53:52.283Z,0
2017-04-12T21:54:52.243Z,0
2017-04-12T21:55:52.553Z,0
2017-04-12T21:56:52.551Z,0
2017-04-12T21:57:52.611Z,0
2017-04-12T21:58:51.932Z,0
2017-04-12T21:59:52.562Z,0
2017-04-12T22:00:52.293Z,0
2017-04-12T22:01:52.561Z,0
2017-04-12T22:02:53.062Z,0
2017-04-12T22:03:52.557Z,0
2017-04-12T22:04:52.570Z,0
2017-04-12T22:05:52.659Z,0
2017-04-12T22:06:52.568Z,0
2017-04-12T22:07:51.984Z,0
2017-04-12T22:08:52.578Z,0
2017-04-12T22:09:52.584Z,0
2017-04-12T22:10:52.259Z,0
2017-04-12T22:11:52.571Z,0
2017-04-12T22:12:52.584Z,0
2017-04-12T22:13:52.261Z,0
2017-04-12T22:14:53.874Z,0
2017-04-12T22:15:52.627Z,0
2017-04-12T22:16:52.580Z,0
2017-04-12T22:17:52.620Z,0
2017-04-12T22:18:52.267Z,0
2017-04-12T22:19:52.577Z,0
2017-04-12T22:20:52.629Z,0
2017-04-12T22:21:51.960Z,0
2017-04-12T22:22:52.269Z,0
2017-04-12T22:23:52.274Z,0
2017-04-12T22:24:52.584Z,0
2017-04-12T22:25:52.640Z,0
2017-04-12T22:26:52.588Z,0
2017-04-12T22:27:52.280Z,0
2017-04-12T22:28:52.647Z,0
2017-04-12T22:29:52.648Z,0
2017-04-12T22:30:52.297Z,0
2017-04-12T22:31:52.290Z,0
2017-04-12T22:32:53.712Z,0
2017-04-12T22:33:52.839Z,0
2017-04-12T22:34:52.918Z,0
2017-04-12T22:35:52.311Z,0
2017-04-12T22:36:54.127Z,0
2017-04-12T22:37:52.633Z,0
2017-04-12T22:38:52.637Z,0
2017-04-12T22:39:52.329Z,0
2017-04-12T22:40:52.330Z,0
2017-04-12T22:41:52.652Z,0
2017-04-12T22:42:52.339Z,0
2017-04-12T22:43:52.666Z,0
2017-04-12T22:44:52.351Z,0
2017-04-12T22:45:52.717Z,0
2017-04-12T22:46:52.720Z,0
2017-04-12T22:47:52.677Z,0
2017-04-12T22:48:52.680Z,0
2017-04-12T22:49:53.429Z,0
2017-04-12T22:50:52.068Z,0
2017-04-12T22:51:52.383Z,0
2017-04-12T22:52:52.076Z,0
2017-04-12T22:53:52.393Z,0
2017-04-12T22:54:52.707Z,0
2017-04-12T22:55:52.734Z,0
2017-04-12T22:56:52.714Z,0
2017-04-12T22:57:52.719Z,0
2017-04-12T22:58:52.410Z,0
2017-04-12T22:59:52.824Z,0
2017-04-12T23:00:52.425Z,0
2017-04-12T23:01:52.426Z,0
2017-04-12T23:02:52.793Z,0
2017-04-12T23:03:52.793Z,0
2017-04-12T23:04:52.752Z,0
2017-04-12T23:05:52.755Z,0
2017-04-12T23:06:52.762Z,0
2017-04-12T23:07:53.964Z,0
2017-04-12T23:08:52.455Z,0
2017-04-12T23:09:52.461Z,0
2017-04-12T23:10:52.468Z,0
2017-04-12T23:11:52.472Z,0
2017-04-12T23:12:52.164Z,0
2017-04-12T23:13:52.787Z,0
2017-04-12T23:14:52.489Z,0
2017-04-12T23:15:52.494Z,0
2017-04-12T23:16:52.809Z,0
2017-04-12T23:17:52.497Z,0
2017-04-12T23:18:52.819Z,0
2017-04-12T23:19:52.506Z,0
2017-04-12T23:20:52.511Z,0
2017-04-12T23:21:52.517Z,0
2017-04-12T23:22:52.569Z,0
2017-04-12T23:23:52.216Z,0
2017-04-12T23:24:52.529Z,0
2017-04-12T23:25:52.842Z,0
2017-04-12T23:26:52.849Z,0
2017-04-12T23:27:52.855Z,0
2017-04-12T23:28:52.545Z,0
2017-04-12T23:29:53.447Z,0
2017-04-12T23:30:52.251Z,0
2017-04-12T23:31:52.558Z,0
2017-04-12T23:32:52.874Z,0
2017-04-12T23:33:52.608Z,0
2017-04-12T23:34:52.924Z,0
2017-04-12T23:35:52.613Z,0
2017-04-12T23:36:52.990Z,0
2017-04-12T23:37:52.624Z,0
2017-04-12T23:42:20.196Z,0
2017-04-12T23:42:42.260Z,0
2017-04-12T23:43:42.212Z,0
2017-04-12T23:44:41.911Z,0
2017-04-12T23:45:42.175Z,0
2017-04-12T23:46:42.176Z,0
2017-04-12T23:47:42.232Z,0
2017-04-12T23:48:41.876Z,0
2017-04-12T23:49:42.193Z,0